Terminal Aerodrome Forecast
Issued by NWS

Home | Current Version | Previous Version | Text Only | Print | Product List | Glossary On
Versions: 1 2 3 4 5 6 7 8 9 10 11 12 13 14 15 16 17 18 19
000
FTUS43 KMPX 262149 AAA
TAFRNH
TAF AMD
KRNH 262149Z 2622/2718 29005KT P6SM BKN015 OVC030
      TEMPO 2622/2702 SCT030 OVC050
     FM270700 34005KT P6SM BKN020
     FM271200 02003KT P6SM SCT020=

USA.gov is the U.S. government's official web portal to all federal, state and local government web resources and services.